createdAt,value
2024-02-19T00:02:02.265Z,2.40
2024-02-19T00:04:29.705Z,2.40
2024-02-19T00:06:57.071Z,2.40
2024-02-19T00:09:24.328Z,2.40
2024-02-19T00:11:51.603Z,2.40
2024-02-19T00:14:18.978Z,2.40
2024-02-19T00:16:48.415Z,2.40
2024-02-19T00:19:15.791Z,2.50
2024-02-19T00:21:43.201Z,2.40
2024-02-19T00:24:10.405Z,2.50
2024-02-19T00:26:38.016Z,2.40
2024-02-19T00:29:06.372Z,2.50
2024-02-19T00:31:34.677Z,2.50
2024-02-19T00:34:02.192Z,2.40
2024-02-19T00:36:29.660Z,2.40
2024-02-19T00:38:56.966Z,2.50
2024-02-19T00:41:24.282Z,2.50
2024-02-19T00:43:51.491Z,2.40
2024-02-19T00:46:18.797Z,2.40
2024-02-19T00:48:46.284Z,2.40
2024-02-19T00:51:13.529Z,2.30
2024-02-19T00:53:41.460Z,2.30
2024-02-19T00:56:20.049Z,2.20
2024-02-19T00:58:47.482Z,2.20
2024-02-19T01:01:14.783Z,2.10
2024-02-19T01:03:45.409Z,2.00
2024-02-19T01:06:13.126Z,2.00
2024-02-19T01:08:40.319Z,2.00
2024-02-19T01:11:07.642Z,2.00
2024-02-19T01:13:35.028Z,1.90
2024-02-19T01:16:02.461Z,1.90
2024-02-19T01:18:29.826Z,1.90
2024-02-19T01:20:57.287Z,1.90
2024-02-19T01:23:24.687Z,1.80
2024-02-19T01:25:54.270Z,1.80
2024-02-19T01:28:21.742Z,1.70
2024-02-19T01:30:49.977Z,1.70
2024-02-19T01:33:17.228Z,1.70
2024-02-19T01:35:46.226Z,1.70
2024-02-19T01:38:13.598Z,1.70
2024-02-19T01:40:40.856Z,1.80
2024-02-19T01:43:11.494Z,1.80
2024-02-19T01:45:39.518Z,1.70
2024-02-19T01:48:08.085Z,1.70
2024-02-19T01:50:37.244Z,1.60
2024-02-19T01:53:08.795Z,1.60
2024-02-19T01:55:38.447Z,1.60
2024-02-19T01:58:07.949Z,1.60
2024-02-19T02:00:43.945Z,1.60
2024-02-19T02:03:13.107Z,1.50
2024-02-19T02:05:40.457Z,1.50
2024-02-19T02:08:08.033Z,1.50
2024-02-19T02:10:35.336Z,1.50
2024-02-19T02:13:02.582Z,1.40
2024-02-19T02:15:30.085Z,1.40
2024-02-19T02:17:57.410Z,1.40
2024-02-19T02:20:25.129Z,1.40
2024-02-19T02:22:53.493Z,1.40
2024-02-19T02:25:22.772Z,1.40
2024-02-19T02:27:50.026Z,1.40
2024-02-19T02:30:17.443Z,1.40
2024-02-19T02:32:45.146Z,1.40
2024-02-19T02:35:12.694Z,1.40
2024-02-19T02:37:39.881Z,1.40
2024-02-19T02:40:07.875Z,1.40
2024-02-19T02:42:35.116Z,1.30
2024-02-19T02:45:02.383Z,1.30
2024-02-19T02:47:29.727Z,1.30
2024-02-19T02:49:56.973Z,1.30
2024-02-19T02:52:24.375Z,1.30
2024-02-19T02:54:51.783Z,1.30
2024-02-19T02:57:19.485Z,1.30
2024-02-19T02:59:46.712Z,1.30
2024-02-19T03:02:14.156Z,1.20
2024-02-19T03:04:41.443Z,1.20
2024-02-19T03:07:09.190Z,1.20
2024-02-19T03:09:36.548Z,1.20
2024-02-19T03:12:04.075Z,1.20
2024-02-19T03:14:31.232Z,1.20
2024-02-19T03:16:58.507Z,1.20
2024-02-19T03:19:26.150Z,1.20
2024-02-19T03:21:53.634Z,1.30
2024-02-19T03:24:21.717Z,1.30
2024-02-19T03:26:50.310Z,1.30
2024-02-19T03:29:17.389Z,1.30
2024-02-19T03:31:45.434Z,1.40
2024-02-19T03:34:12.889Z,1.40
2024-02-19T03:36:43.294Z,1.40
2024-02-19T03:39:10.580Z,1.40
2024-02-19T03:41:37.759Z,1.40
2024-02-19T03:44:05.113Z,1.40
2024-02-19T03:46:32.441Z,1.40
2024-02-19T03:49:01.611Z,1.50
2024-02-19T03:51:28.985Z,1.50
2024-02-19T03:53:56.464Z,1.50
2024-02-19T03:56:23.822Z,1.50
2024-02-19T03:58:51.377Z,1.50
2024-02-19T04:01:19.024Z,1.60
2024-02-19T04:03:46.397Z,1.60
2024-02-19T04:06:13.672Z,1.60
2024-02-19T04:08:41.449Z,1.60
2024-02-19T04:11:08.799Z,1.70
2024-02-19T04:13:36.006Z,1.70
2024-02-19T04:16:03.318Z,1.80
2024-02-19T04:18:31.406Z,1.80
2024-02-19T04:20:58.709Z,1.80
2024-02-19T04:23:26.128Z,1.90
2024-02-19T04:25:53.244Z,1.90
2024-02-19T04:28:20.447Z,2.10
2024-02-19T04:30:48.312Z,2.10
2024-02-19T04:33:15.823Z,2.10
2024-02-19T04:35:43.413Z,2.10
2024-02-19T04:38:10.667Z,2.10
2024-02-19T04:40:37.923Z,2.10
2024-02-19T04:43:05.765Z,2.10
2024-02-19T04:45:33.503Z,2.10
2024-02-19T04:48:00.817Z,2.20
2024-02-19T04:50:28.123Z,2.20
2024-02-19T04:52:55.299Z,2.20
2024-02-19T04:55:22.751Z,2.20
2024-02-19T04:57:50.190Z,2.20
2024-02-19T05:00:17.663Z,2.20
2024-02-19T05:02:45.680Z,2.20
2024-02-19T05:05:13.219Z,2.30
2024-02-19T05:07:40.499Z,2.30
2024-02-19T05:10:08.852Z,2.30
2024-02-19T05:12:36.671Z,2.30
2024-02-19T05:15:05.462Z,2.40
2024-02-19T05:17:32.890Z,2.40
2024-02-19T05:20:00.080Z,2.40
2024-02-19T05:22:27.467Z,2.40
2024-02-19T05:24:54.829Z,2.40
2024-02-19T05:27:23.405Z,2.40
2024-02-19T05:29:50.703Z,2.30
2024-02-19T05:32:20.245Z,2.30
2024-02-19T05:34:47.994Z,2.40
2024-02-19T05:37:15.998Z,2.40
2024-02-19T05:39:44.297Z,2.40
2024-02-19T05:42:11.578Z,2.40
2024-02-19T05:44:38.941Z,2.40
2024-02-19T05:47:06.250Z,2.50
2024-02-19T05:49:34.122Z,2.50
2024-02-19T05:52:01.641Z,2.50
2024-02-19T05:54:29.269Z,2.60
2024-02-19T05:56:56.716Z,2.60
2024-02-19T05:59:23.925Z,2.60
2024-02-19T06:01:51.602Z,2.70
2024-02-19T06:04:19.230Z,2.70
2024-02-19T06:06:46.631Z,2.70
2024-02-19T06:09:13.903Z,2.80
2024-02-19T06:11:45.557Z,2.80
2024-02-19T06:14:13.578Z,2.90
2024-02-19T06:16:40.870Z,2.80
2024-02-19T06:19:10.097Z,2.90
2024-02-19T06:21:37.535Z,2.90
2024-02-19T06:24:05.072Z,3.00
2024-02-19T06:26:32.233Z,3.00
2024-02-19T06:28:59.536Z,3.10
2024-02-19T06:31:29.189Z,3.00
2024-02-19T06:33:57.456Z,3.10
2024-02-19T06:36:24.760Z,3.00
2024-02-19T06:38:52.058Z,3.00
2024-02-19T06:41:19.536Z,3.10
2024-02-19T06:43:46.982Z,3.10
2024-02-19T06:46:16.606Z,3.10
2024-02-19T06:48:45.180Z,3.10
2024-02-19T06:51:13.106Z,3.10
2024-02-19T06:53:40.551Z,3.20
2024-02-19T06:56:10.121Z,3.30
2024-02-19T06:58:37.430Z,3.30
2024-02-19T07:01:06.353Z,3.30
2024-02-19T07:03:33.897Z,3.40
2024-02-19T07:06:01.257Z,3.50
2024-02-19T07:08:28.602Z,3.50
2024-02-19T07:10:56.059Z,3.60
2024-02-19T07:13:23.771Z,3.60
2024-02-19T07:15:51.018Z,3.60
2024-02-19T07:18:18.797Z,3.80
2024-02-19T07:20:46.102Z,3.80
2024-02-19T07:23:13.340Z,3.90
2024-02-19T07:25:40.823Z,3.90
2024-02-19T07:28:08.204Z,4.10
2024-02-19T07:30:36.958Z,4.10
2024-02-19T07:33:04.718Z,4.10
2024-02-19T07:35:31.861Z,4.10
2024-02-19T07:37:59.211Z,4.10
2024-02-19T07:40:26.620Z,4.10
2024-02-19T07:42:53.962Z,4.20
2024-02-19T07:45:21.093Z,4.30
2024-02-19T07:47:48.380Z,4.30
2024-02-19T07:50:16.121Z,4.50
2024-02-19T07:52:44.872Z,4.50
2024-02-19T07:55:12.375Z,4.70
2024-02-19T07:57:39.982Z,4.80
2024-02-19T08:00:08.034Z,4.90
2024-02-19T08:02:35.498Z,5.00
2024-02-19T08:05:03.294Z,5.20
2024-02-19T08:07:30.815Z,5.30
2024-02-19T08:09:58.150Z,5.30
2024-02-19T08:12:25.635Z,5.50
2024-02-19T08:14:53.973Z,5.60
2024-02-19T08:17:21.304Z,5.80
2024-02-19T08:19:48.409Z,5.90
2024-02-19T08:22:15.763Z,6.00
2024-02-19T08:24:43.054Z,6.10
2024-02-19T08:27:10.472Z,6.20
2024-02-19T08:29:37.757Z,6.30
2024-02-19T08:32:05.424Z,6.40
2024-02-19T08:34:32.721Z,6.40
2024-02-19T08:37:00.446Z,6.50
2024-02-19T08:39:27.913Z,6.60
2024-02-19T08:41:58.038Z,6.80
2024-02-19T08:44:25.409Z,6.90
2024-02-19T08:46:52.556Z,7.00
2024-02-19T08:49:20.266Z,7.10
2024-02-19T08:51:47.523Z,7.30
2024-02-19T08:54:14.762Z,7.40
2024-02-19T08:56:42.531Z,7.40
2024-02-19T08:59:09.651Z,7.50
2024-02-19T09:01:36.984Z,7.60
2024-02-19T09:04:04.499Z,7.60
2024-02-19T09:06:31.772Z,7.70
2024-02-19T09:09:00.713Z,7.60
2024-02-19T09:11:28.271Z,7.70
2024-02-19T09:13:55.620Z,7.60
2024-02-19T09:16:23.005Z,7.70
2024-02-19T09:18:50.565Z,7.70
2024-02-19T09:21:18.058Z,7.80
2024-02-19T09:23:46.399Z,7.90
2024-02-19T09:26:14.777Z,8.00
2024-02-19T09:28:42.172Z,8.10
2024-02-19T09:31:09.809Z,7.90
2024-02-19T09:33:37.519Z,8.00
2024-02-19T09:36:06.737Z,8.00
2024-02-19T09:38:34.397Z,8.10
2024-02-19T09:41:05.485Z,8.00
2024-02-19T09:43:33.247Z,8.00
2024-02-19T09:46:05.170Z,8.10
2024-02-19T09:48:34.168Z,8.20
2024-02-19T09:51:02.099Z,8.30
2024-02-19T09:53:34.144Z,8.40
2024-02-19T09:56:02.020Z,8.50
2024-02-19T09:58:30.336Z,8.80
2024-02-19T10:00:57.830Z,8.90
2024-02-19T10:03:25.152Z,9.10
2024-02-19T10:05:53.323Z,9.30
2024-02-19T10:08:21.712Z,9.50
2024-02-19T10:10:57.692Z,9.70
2024-02-19T10:13:25.432Z,9.90
2024-02-19T10:15:52.790Z,9.80
2024-02-19T10:18:21.830Z,9.80
2024-02-19T10:20:52.126Z,9.80
2024-02-19T10:23:23.986Z,9.90
2024-02-19T10:25:52.278Z,9.90
2024-02-19T10:28:22.751Z,10.00
2024-02-19T10:30:50.442Z,9.90
2024-02-19T10:33:17.852Z,9.80
2024-02-19T10:35:46.568Z,9.90
2024-02-19T10:38:15.271Z,9.90
2024-02-19T10:40:42.455Z,10.00
2024-02-19T10:43:11.373Z,10.10
2024-02-19T10:45:39.610Z,10.40
2024-02-19T10:48:10.517Z,10.50
2024-02-19T10:50:38.407Z,10.40
2024-02-19T10:53:07.979Z,10.50
2024-02-19T10:55:48.818Z,10.70
2024-02-19T10:58:26.974Z,10.70
2024-02-19T11:00:58.937Z,10.70
2024-02-19T11:03:26.629Z,10.70
2024-02-19T11:05:54.178Z,10.70
2024-02-19T11:08:23.738Z,10.70
2024-02-19T11:10:56.533Z,10.80
2024-02-19T11:13:28.159Z,10.70
2024-02-19T11:15:56.549Z,10.90
2024-02-19T11:18:24.119Z,11.00
2024-02-19T11:20:51.980Z,11.10
2024-02-19T11:23:21.442Z,11.10
2024-02-19T11:25:49.185Z,11.30
2024-02-19T11:28:16.752Z,11.40
2024-02-19T11:30:45.731Z,11.50
2024-02-19T11:33:13.668Z,11.70
2024-02-19T11:35:44.765Z,11.80
2024-02-19T11:38:12.324Z,11.90
2024-02-19T11:40:39.882Z,12.00
2024-02-19T11:43:07.891Z,12.10
2024-02-19T11:45:39.214Z,12.10
2024-02-19T11:48:07.141Z,12.10
2024-02-19T11:50:34.463Z,12.10
2024-02-19T11:53:04.391Z,12.10
2024-02-19T11:55:34.793Z,12.00
2024-02-19T11:58:03.553Z,11.90
2024-02-19T12:00:32.750Z,12.10
2024-02-19T12:03:01.504Z,12.20
2024-02-19T12:05:29.359Z,12.40
2024-02-19T12:07:57.463Z,12.50
2024-02-19T12:10:25.398Z,12.30
2024-02-19T12:12:53.188Z,12.20
2024-02-19T12:15:20.840Z,12.20
2024-02-19T12:17:53.712Z,12.20
2024-02-19T12:20:21.707Z,12.20
2024-02-19T12:22:49.290Z,12.30
2024-02-19T12:25:17.144Z,12.50
2024-02-19T12:27:44.555Z,12.70
2024-02-19T12:30:12.169Z,12.90
2024-02-19T12:32:40.625Z,13.00
2024-02-19T12:35:08.510Z,13.20
2024-02-19T12:37:36.029Z,13.40
2024-02-19T12:40:04.485Z,13.50
2024-02-19T12:42:32.018Z,13.50
2024-02-19T12:44:59.422Z,13.60
2024-02-19T12:47:27.393Z,13.80
2024-02-19T12:49:54.868Z,13.90
2024-02-19T12:52:25.621Z,14.10
2024-02-19T12:54:53.131Z,14.30
2024-02-19T12:57:22.487Z,14.30
2024-02-19T12:59:49.999Z,14.20
2024-02-19T13:02:17.872Z,14.10
2024-02-19T13:04:45.329Z,14.20
2024-02-19T13:07:12.811Z,14.20
2024-02-19T13:09:40.872Z,14.10
2024-02-19T13:12:10.558Z,14.10
2024-02-19T13:14:38.124Z,13.80
2024-02-19T13:17:13.230Z,13.80
2024-02-19T13:19:43.113Z,13.80
2024-02-19T13:22:10.881Z,13.70
2024-02-19T13:24:38.330Z,13.60
2024-02-19T13:27:06.009Z,13.70
2024-02-19T13:29:34.345Z,13.70
2024-02-19T13:32:01.987Z,13.60
2024-02-19T13:34:29.271Z,13.50
2024-02-19T13:36:56.716Z,13.50
2024-02-19T13:39:24.492Z,13.60
2024-02-19T13:41:53.090Z,13.80
2024-02-19T13:44:20.708Z,14.10
2024-02-19T13:46:48.087Z,14.20
2024-02-19T13:49:15.593Z,14.20
2024-02-19T13:51:43.313Z,14.10
2024-02-19T13:54:10.918Z,14.00
2024-02-19T13:56:38.201Z,13.90
2024-02-19T13:59:08.299Z,13.80
2024-02-19T14:01:39.405Z,13.80
2024-02-19T14:04:08.707Z,13.60
2024-02-19T14:06:36.288Z,13.50
2024-02-19T14:09:03.738Z,13.40
2024-02-19T14:11:31.124Z,13.40
2024-02-19T14:14:02.443Z,13.30
2024-02-19T14:16:31.671Z,13.20
2024-02-19T14:19:00.917Z,13.30
2024-02-19T14:21:30.653Z,13.30
2024-02-19T14:23:58.022Z,13.30
2024-02-19T14:26:25.712Z,13.20
2024-02-19T14:28:54.406Z,13.20
2024-02-19T14:31:23.577Z,13.20
2024-02-19T14:33:52.458Z,13.10
2024-02-19T14:36:21.049Z,13.10
2024-02-19T14:38:48.631Z,12.90
2024-02-19T14:41:15.862Z,12.80
2024-02-19T14:43:43.571Z,12.80
2024-02-19T14:46:11.351Z,12.70
2024-02-19T14:48:39.724Z,12.70
2024-02-19T14:51:12.370Z,12.60
2024-02-19T14:53:40.628Z,12.50
2024-02-19T14:56:09.704Z,12.60
2024-02-19T14:58:36.994Z,12.50
2024-02-19T15:01:04.517Z,12.30
2024-02-19T15:03:32.076Z,12.20
2024-02-19T15:05:59.811Z,12.00
2024-02-19T15:08:27.637Z,12.10
2024-02-19T15:10:54.993Z,11.90
2024-02-19T15:13:23.238Z,11.90
2024-02-19T15:15:50.582Z,11.90
2024-02-19T15:18:18.040Z,11.90
2024-02-19T15:20:47.103Z,11.80
2024-02-19T15:23:15.467Z,11.80
2024-02-19T15:25:43.465Z,11.70
2024-02-19T15:28:10.918Z,11.60
2024-02-19T15:30:39.815Z,11.70
2024-02-19T15:33:07.687Z,11.60
2024-02-19T15:35:35.696Z,11.60
2024-02-19T15:38:03.074Z,11.50
2024-02-19T15:40:31.325Z,11.40
2024-02-19T15:42:58.598Z,11.40
2024-02-19T15:45:26.154Z,11.30
2024-02-19T15:47:53.617Z,11.20
2024-02-19T15:50:21.254Z,11.10
2024-02-19T15:52:55.679Z,11.10
2024-02-19T15:55:29.321Z,11.00
2024-02-19T15:57:58.396Z,10.90
2024-02-19T16:00:25.828Z,10.80
2024-02-19T16:02:53.203Z,10.80
2024-02-19T16:05:20.430Z,10.70
2024-02-19T16:07:50.520Z,10.60
2024-02-19T16:10:18.122Z,10.50
2024-02-19T16:12:46.431Z,10.40
2024-02-19T16:15:14.478Z,10.30
2024-02-19T16:17:42.652Z,10.30
2024-02-19T16:20:10.454Z,10.20
2024-02-19T16:22:40.167Z,10.10
2024-02-19T16:25:08.545Z,10.00
2024-02-19T16:27:37.480Z,10.00
2024-02-19T16:30:08.108Z,9.90
2024-02-19T16:32:37.812Z,9.80
2024-02-19T16:35:05.971Z,9.70
2024-02-19T16:37:33.492Z,9.60
2024-02-19T16:40:00.874Z,9.50
2024-02-19T16:42:28.079Z,9.50
2024-02-19T16:44:55.480Z,9.40
2024-02-19T16:47:22.816Z,9.30
2024-02-19T16:49:50.117Z,9.30
2024-02-19T16:52:17.626Z,9.30
2024-02-19T16:54:45.710Z,9.20
2024-02-19T16:57:13.076Z,9.20
2024-02-19T16:59:40.570Z,9.20
2024-02-19T17:02:08.390Z,9.10
2024-02-19T17:04:35.868Z,9.00
2024-02-19T17:07:05.342Z,9.00
2024-02-19T17:09:35.204Z,8.90
2024-02-19T17:12:02.966Z,8.80
2024-02-19T17:14:30.236Z,8.80
2024-02-19T17:17:00.366Z,8.80
2024-02-19T17:19:28.023Z,8.70
2024-02-19T17:21:55.650Z,8.70
2024-02-19T17:24:23.500Z,8.50
2024-02-19T17:26:51.874Z,8.40
2024-02-19T17:29:19.173Z,8.30
2024-02-19T17:31:49.745Z,8.20
2024-02-19T17:34:18.819Z,8.20
2024-02-19T17:36:47.769Z,8.10
2024-02-19T17:39:15.308Z,8.10
2024-02-19T17:41:42.479Z,8.00
2024-02-19T17:44:11.007Z,7.90
2024-02-19T17:46:38.302Z,7.90
2024-02-19T17:49:09.682Z,7.80
2024-02-19T17:51:37.576Z,7.80
2024-02-19T17:54:05.103Z,7.70
2024-02-19T17:56:32.396Z,7.60
2024-02-19T17:59:00.040Z,7.60
2024-02-19T18:01:27.556Z,7.50
2024-02-19T18:03:56.104Z,7.50
2024-02-19T18:06:23.574Z,7.40
2024-02-19T18:08:52.366Z,7.30
2024-02-19T18:11:20.434Z,7.30
2024-02-19T18:13:47.832Z,7.30
2024-02-19T18:16:16.207Z,7.30
2024-02-19T18:18:45.979Z,7.20
2024-02-19T18:21:13.394Z,7.10
2024-02-19T18:23:40.821Z,7.10
2024-02-19T18:26:08.679Z,7.10
2024-02-19T18:28:37.159Z,7.00
2024-02-19T18:31:05.585Z,7.00
2024-02-19T18:33:33.109Z,6.90
2024-02-19T18:36:00.621Z,6.80
2024-02-19T18:38:27.929Z,6.70
2024-02-19T18:40:57.708Z,6.60
2024-02-19T18:43:26.980Z,6.50
2024-02-19T18:45:54.597Z,6.50
2024-02-19T18:48:22.605Z,6.40
2024-02-19T18:50:50.701Z,6.30
2024-02-19T18:53:18.067Z,6.30
2024-02-19T18:55:45.680Z,6.30
2024-02-19T18:58:13.389Z,6.30
2024-02-19T19:00:40.762Z,6.30
2024-02-19T19:03:08.094Z,6.20
2024-02-19T19:05:35.938Z,6.10
2024-02-19T19:08:03.328Z,6.10
2024-02-19T19:10:30.624Z,6.00
2024-02-19T19:12:57.812Z,5.90
2024-02-19T19:15:25.053Z,5.80
2024-02-19T19:17:52.446Z,5.70
2024-02-19T19:20:20.029Z,5.60
2024-02-19T19:22:47.549Z,5.50
2024-02-19T19:25:15.540Z,5.50
2024-02-19T19:27:42.721Z,5.50
2024-02-19T19:30:10.353Z,5.50
2024-02-19T19:32:37.589Z,5.50
2024-02-19T19:35:06.333Z,5.40
2024-02-19T19:37:34.145Z,5.40
2024-02-19T19:40:05.438Z,5.30
2024-02-19T19:42:32.853Z,5.30
2024-02-19T19:45:00.219Z,5.30
2024-02-19T19:47:31.500Z,5.30
2024-02-19T19:49:58.938Z,5.20
2024-02-19T19:52:26.424Z,5.20
2024-02-19T19:54:54.637Z,5.20
2024-02-19T19:57:28.021Z,5.20
2024-02-19T19:59:56.230Z,5.20
2024-02-19T20:02:24.581Z,5.20
2024-02-19T20:04:52.946Z,5.10
2024-02-19T20:07:20.437Z,5.10
2024-02-19T20:09:48.081Z,5.10
2024-02-19T20:12:15.399Z,5.00
2024-02-19T20:14:42.615Z,5.00
2024-02-19T20:17:09.877Z,5.00
2024-02-19T20:19:37.214Z,4.90
2024-02-19T20:22:04.719Z,5.00
2024-02-19T20:24:32.056Z,4.90
2024-02-19T20:27:02.165Z,4.90
2024-02-19T20:29:29.476Z,4.80
2024-02-19T20:32:02.298Z,4.70
2024-02-19T20:34:31.153Z,4.70
2024-02-19T20:36:58.526Z,4.60
2024-02-19T20:39:28.704Z,4.50
2024-02-19T20:41:56.134Z,4.40
2024-02-19T20:44:23.422Z,4.30
2024-02-19T20:46:50.776Z,4.30
2024-02-19T20:49:18.037Z,4.20
2024-02-19T20:51:46.204Z,4.20
2024-02-19T20:54:13.447Z,4.20
2024-02-19T20:56:44.430Z,4.10
2024-02-19T20:59:11.889Z,4.20
2024-02-19T21:01:39.442Z,4.20
2024-02-19T21:04:08.670Z,4.10
2024-02-19T21:06:36.279Z,4.00
2024-02-19T21:09:03.721Z,3.90
2024-02-19T21:11:32.897Z,3.80
2024-02-19T21:14:02.630Z,3.70
2024-02-19T21:16:30.148Z,3.60
2024-02-19T21:18:57.775Z,3.70
2024-02-19T21:21:30.512Z,3.70
2024-02-19T21:24:03.578Z,3.80
2024-02-19T21:26:32.167Z,3.80
2024-02-19T21:28:59.633Z,3.80
2024-02-19T21:31:27.219Z,3.80
2024-02-19T21:33:54.815Z,3.70
2024-02-19T21:36:22.514Z,3.60
2024-02-19T21:38:50.803Z,3.50
2024-02-19T21:41:18.267Z,3.50
2024-02-19T21:43:45.824Z,3.40
2024-02-19T21:46:13.593Z,3.30
2024-02-19T21:48:43.788Z,3.30
2024-02-19T21:51:11.157Z,3.20
2024-02-19T21:53:38.537Z,3.20
2024-02-19T21:56:06.188Z,3.20
2024-02-19T21:58:33.389Z,3.10
2024-02-19T22:01:01.028Z,3.10
2024-02-19T22:03:28.523Z,3.00
2024-02-19T22:05:55.799Z,3.10
2024-02-19T22:08:23.258Z,3.10
2024-02-19T22:10:50.776Z,3.20
2024-02-19T22:13:18.272Z,3.20
2024-02-19T22:15:48.380Z,3.20
2024-02-19T22:18:15.756Z,3.10
2024-02-19T22:20:43.125Z,3.10
2024-02-19T22:23:10.362Z,3.00
2024-02-19T22:25:37.840Z,2.90
2024-02-19T22:28:06.118Z,2.80
2024-02-19T22:30:34.063Z,2.70
2024-02-19T22:33:01.468Z,2.60
2024-02-19T22:35:28.877Z,2.60
2024-02-19T22:37:56.179Z,2.60
2024-02-19T22:40:23.540Z,2.60
2024-02-19T22:42:52.441Z,2.60
2024-02-19T22:45:20.279Z,2.50
2024-02-19T22:47:47.906Z,2.60
2024-02-19T22:50:15.386Z,2.70
2024-02-19T22:52:43.803Z,2.80
2024-02-19T22:55:11.763Z,2.70
2024-02-19T22:57:39.383Z,2.70
2024-02-19T23:00:28.897Z,2.70
2024-02-19T23:02:56.414Z,2.60
2024-02-19T23:05:24.906Z,2.50
2024-02-19T23:07:55.272Z,2.40
2024-02-19T23:10:23.255Z,2.30
2024-02-19T23:12:51.610Z,2.30
2024-02-19T23:15:19.581Z,2.30
2024-02-19T23:17:47.042Z,2.30
2024-02-19T23:20:14.657Z,2.30
2024-02-19T23:22:45.233Z,2.30
2024-02-19T23:25:14.038Z,2.30
2024-02-19T23:27:41.431Z,2.30
2024-02-19T23:30:09.129Z,2.30
2024-02-19T23:32:37.772Z,2.30
2024-02-19T23:35:06.666Z,2.40
2024-02-19T23:37:34.472Z,2.40
2024-02-19T23:40:02.176Z,2.40
2024-02-19T23:42:29.583Z,2.40
2024-02-19T23:44:57.580Z,2.30
2024-02-19T23:47:25.230Z,2.20
2024-02-19T23:49:52.531Z,2.20
2024-02-19T23:52:19.774Z,2.10
2024-02-19T23:54:47.242Z,2.00
2024-02-19T23:57:14.489Z,2.00
2024-02-19T23:59:41.870Z,1.90
